Time;durP1;ratioP1;P1;durP2;ratioP2;P2;SDS_P1;SDS_P2;PMS_P1;PMS_P2;Temp;Humidity;BMP_temperature;BMP_pressure;BME280_temperature;BME280_humidity;BME280_pressure;Samples;Min_cycle;Max_cycle;Signal;HPM_P1;HPM_P2
2022/05/04 00:00:31;;;;;;;;;27.75;24.00;;;;;14.31;50.46;101260.19;5038529;28;63211;-51
2022/05/04 00:02:56;;;;;;;;;29.50;24.75;;;;;14.28;50.80;101258.50;5039730;28;70093;-53
2022/05/04 00:05:22;;;;;;;;;32.75;28.00;;;;;14.27;51.76;101255.91;5040288;28;45383;-54
2022/05/04 00:07:47;;;;;;;;;28.75;24.50;;;;;14.26;51.29;101247.16;5038182;28;63707;-54
2022/05/04 00:10:13;;;;;;;;;33.00;23.50;;;;;14.24;51.22;101249.00;5040076;28;66050;-54
2022/05/04 00:12:38;;;;;;;;;27.75;23.25;;;;;14.23;51.18;101237.56;5039316;28;46878;-52
2022/05/04 00:15:04;;;;;;;;;33.50;25.75;;;;;14.24;50.89;101246.34;5040956;28;45360;-51
2022/05/04 00:17:30;;;;;;;;;28.50;24.00;;;;;14.21;50.79;101244.69;5040050;28;45347;-53
2022/05/04 00:19:55;;;;;;;;;37.75;28.75;;;;;14.18;50.90;101239.53;5028945;28;45289;-53
2022/05/04 00:22:21;;;;;;;;;25.00;21.00;;;;;14.13;50.78;101248.47;5039118;28;65169;-50
2022/05/04 00:24:46;;;;;;;;;31.50;24.25;;;;;14.09;52.12;101242.47;5040417;28;45874;-52
2022/05/04 00:27:14;;;;;;;;;28.75;26.50;;;;;14.08;51.47;101237.25;5039819;28;45620;-53
2022/05/04 00:29:39;;;;;;;;;31.00;25.25;;;;;14.04;51.56;101231.22;5038223;28;45376;-51
2022/05/04 00:32:05;;;;;;;;;29.75;19.75;;;;;14.01;51.61;101229.56;5039224;28;56109;-52
2022/05/04 00:34:31;;;;;;;;;31.50;25.25;;;;;13.96;51.74;101226.22;5040216;28;45300;-52
2022/05/04 00:37:01;;;;;;;;;30.25;26.00;;;;;13.83;51.05;101212.63;5040016;28;45736;-53
2022/05/04 00:39:26;;;;;;;;;31.50;27.00;;;;;13.90;52.02;101222.94;5040253;28;45496;-53
2022/05/04 00:41:52;;;;;;;;;35.50;25.25;;;;;13.88;51.76;101220.34;5039076;28;48077;-53
2022/05/04 00:44:17;;;;;;;;;31.75;23.75;;;;;13.90;52.23;101218.53;5039412;28;67196;-54
2022/05/04 00:46:42;;;;;;;;;36.00;24.25;;;;;13.92;51.87;101216.72;5038828;28;61603;-54
2022/05/04 00:49:08;;;;;;;;;31.25;26.25;;;;;13.90;51.99;101215.03;5032867;28;66854;-54
2022/05/04 00:51:33;;;;;;;;;21.00;19.00;;;;;13.91;51.95;101217.63;5038119;28;45973;-54
2022/05/04 00:53:59;;;;;;;;;33.25;24.50;;;;;13.89;52.41;101222.06;5038035;28;64025;-54
2022/05/04 00:56:24;;;;;;;;;34.50;24.00;;;;;13.88;52.21;101216.88;5038042;28;45397;-54
2022/05/04 00:58:55;;;;;;;;;29.75;24.50;;;;;13.86;51.53;101227.44;5037813;28;68628;-53
2022/05/04 01:01:28;;;;;;;;;35.25;25.50;;;;;13.79;52.07;101232.06;5039243;28;46372;-54
2022/05/04 01:03:54;;;;;;;;;31.75;25.50;;;;;13.72;52.19;101232.28;5031436;28;45774;-53
2022/05/04 01:06:20;;;;;;;;;34.50;27.75;;;;;13.67;52.65;101225.41;5039349;28;45359;-53
2022/05/04 01:08:45;;;;;;;;;32.25;23.25;;;;;13.67;52.45;101229.81;5039818;28;45327;-54
2022/05/04 01:11:10;;;;;;;;;40.25;28.75;;;;;13.65;52.51;101224.59;5038668;28;45981;-54
2022/05/04 01:13:36;;;;;;;;;33.00;27.75;;;;;13.67;52.04;101229.81;5039301;28;52222;-54
2022/05/04 01:16:01;;;;;;;;;37.50;29.00;;;;;13.65;52.37;101228.97;5037439;28;61633;-54
2022/05/04 01:18:27;;;;;;;;;40.00;28.25;;;;;13.64;52.79;101220.25;5038418;28;45340;-53
2022/05/04 01:20:52;;;;;;;;;30.25;23.50;;;;;13.62;52.55;101222.06;5038180;28;68155;-54
2022/05/04 01:23:17;;;;;;;;;36.50;27.75;;;;;13.59;53.50;101224.78;5038706;28;65300;-54
2022/05/04 01:25:43;;;;;;;;;30.75;27.25;;;;;13.59;52.62;101235.31;5037748;28;45943;-53
2022/05/04 01:28:08;;;;;;;;;30.75;28.25;;;;;13.58;52.54;101230.97;5039456;28;45364;-52
2022/05/04 01:30:35;;;;;;;;;31.25;22.75;;;;;13.55;53.05;101236.31;5038932;28;45248;-54
2022/05/04 01:33:00;;;;;;;;;30.50;25.50;;;;;13.55;52.56;101232.84;5039379;28;45452;-51
2022/05/04 01:35:26;;;;;;;;;35.75;28.00;;;;;13.56;53.67;101239.78;5039220;28;45341;-52
2022/05/04 01:37:52;;;;;;;;;32.00;27.00;;;;;13.57;53.12;101237.13;5038929;28;55378;-53
2022/05/04 01:40:17;;;;;;;;;21.75;21.25;;;;;13.58;52.96;101237.97;5039418;28;46205;-53
2022/05/04 01:42:43;;;;;;;;;27.25;25.00;;;;;13.58;53.85;101236.22;5037698;28;65177;-51
2022/05/04 01:45:09;;;;;;;;;37.00;28.00;;;;;13.60;53.81;101230.94;5038841;28;61682;-51
2022/05/04 01:47:35;;;;;;;;;30.50;26.00;;;;;13.63;53.42;101228.19;5037536;28;45439;-54
2022/05/04 01:50:00;;;;;;;;;29.25;26.00;;;;;13.63;53.05;101226.44;5039201;28;45438;-53
2022/05/04 01:52:26;;;;;;;;;35.75;24.75;;;;;13.64;53.20;101232.53;5038574;28;45325;-53
2022/05/04 01:54:52;;;;;;;;;30.50;22.50;;;;;13.64;53.17;101228.13;5039413;28;45452;-52
2022/05/04 01:57:19;;;;;;;;;27.00;22.00;;;;;13.63;53.20;101228.19;5038438;28;45360;-53
2022/05/04 01:59:44;;;;;;;;;28.00;22.25;;;;;13.59;53.67;101230.03;5037776;28;48079;-52
2022/05/04 02:02:10;;;;;;;;;29.75;23.50;;;;;13.59;53.65;101229.19;5037685;28;67010;-52
2022/05/04 02:04:36;;;;;;;;;31.50;25.50;;;;;13.59;53.43;101230.03;5039276;28;45437;-53
2022/05/04 02:07:01;;;;;;;;;32.75;22.00;;;;;13.57;53.42;101225.75;5033354;28;45651;-52
2022/05/04 02:09:27;;;;;;;;;35.25;27.75;;;;;13.56;53.67;101234.53;5039015;28;45977;-53
2022/05/04 02:11:52;;;;;;;;;34.25;25.75;;;;;13.54;53.39;101236.38;5037954;28;45453;-52
2022/05/04 02:14:19;;;;;;;;;30.75;26.75;;;;;13.56;54.01;101237.16;5039308;28;45402;-53
2022/05/04 02:16:45;;;;;;;;;35.00;27.25;;;;;13.55;53.74;101231.06;5038412;28;45483;-53
2022/05/04 02:19:10;;;;;;;;;28.75;24.25;;;;;13.53;54.06;101230.25;5038617;28;55295;-53
2022/05/04 02:21:36;;;;;;;;;24.25;22.75;;;;;13.49;53.58;101223.34;5038312;28;45372;-54
2022/05/04 02:24:01;;;;;;;;;32.75;26.25;;;;;13.46;53.02;101223.47;5039019;28;45287;-53
2022/05/04 02:26:26;;;;;;;;;29.75;22.25;;;;;13.41;53.53;101223.59;5037244;28;64528;-53
2022/05/04 02:28:52;;;;;;;;;30.75;25.50;;;;;13.38;53.45;101225.47;5041330;28;66474;-52
2022/05/04 02:31:17;;;;;;;;;29.75;26.50;;;;;13.33;52.94;101224.75;5037695;28;58527;-52
2022/05/04 02:33:44;;;;;;;;;35.50;29.75;;;;;13.25;53.27;101223.16;5040109;28;61579;-52
2022/05/04 02:38:54;;;;;;;;;34.25;29.25;;;;;13.18;53.15;101224.25;5038804;28;45854;-53
2022/05/04 02:41:19;;;;;;;;;33.50;24.50;;;;;13.11;54.02;101222.72;5041290;28;45691;-53
2022/05/04 02:43:45;;;;;;;;;35.50;28.75;;;;;13.07;53.70;101227.22;5041298;28;62945;-53
2022/05/04 02:46:14;;;;;;;;;45.00;34.00;;;;;13.04;53.63;101223.81;5040512;28;68135;-53
2022/05/04 02:48:40;;;;;;;;;50.25;36.00;;;;;13.00;53.87;101225.69;5041774;28;46321;-50
2022/05/04 02:51:05;;;;;;;;;44.50;32.25;;;;;12.97;54.02;101225.75;5040650;28;66668;-52
2022/05/04 02:53:31;;;;;;;;;46.25;30.50;;;;;12.96;53.23;101229.31;5041044;28;62498;-53
2022/05/04 02:55:56;;;;;;;;;37.25;30.25;;;;;12.89;54.54;101214.59;5041180;28;45368;-54
2022/05/04 02:58:21;;;;;;;;;38.25;28.75;;;;;12.91;53.52;101218.91;5040970;28;67579;-53
2022/05/04 03:00:47;;;;;;;;;37.00;32.00;;;;;12.88;54.25;101215.53;5041174;28;48862;-52
2022/05/04 03:03:12;;;;;;;;;54.00;42.25;;;;;12.86;54.59;101212.94;5040987;28;61662;-53
2022/05/04 03:05:38;;;;;;;;;54.50;42.25;;;;;12.84;54.86;101217.38;5041284;28;45276;-53
2022/05/04 03:08:03;;;;;;;;;40.50;31.75;;;;;12.83;54.45;101212.16;5041519;28;46207;-53
2022/05/04 03:10:29;;;;;;;;;47.75;37.00;;;;;12.80;54.56;101207.00;5040922;28;45261;-53
2022/05/04 03:12:54;;;;;;;;;52.00;36.00;;;;;12.78;54.30;101204.41;5040586;28;64756;-53
2022/05/04 03:15:19;;;;;;;;;52.25;37.75;;;;;12.80;55.07;101210.50;5039764;28;62697;-52
2022/05/04 03:17:45;;;;;;;;;48.25;35.00;;;;;12.81;54.98;101211.34;5039143;28;56187;-53
2022/05/04 03:20:12;;;;;;;;;48.25;36.75;;;;;12.78;54.66;101203.56;5040930;28;65145;-50
2022/05/04 03:22:37;;;;;;;;;61.50;45.00;;;;;12.80;54.89;101207.00;5040695;28;45339;-51
2022/05/04 03:25:07;;;;;;;;;52.75;40.50;;;;;12.82;55.09;101199.91;5041520;28;45529;-52
2022/05/04 03:27:32;;;;;;;;;58.00;42.50;;;;;12.80;54.65;101192.13;5040269;28;46357;-50
2022/05/04 03:29:58;;;;;;;;;56.25;42.00;;;;;12.81;55.16;101200.84;5040753;28;66455;-51
2022/05/04 03:32:23;;;;;;;;;52.50;38.50;;;;;12.81;54.96;101204.31;5040568;28;45297;-50
2022/05/04 03:34:49;;;;;;;;;44.75;33.75;;;;;12.81;54.15;101195.59;5040545;28;66563;-53
2022/05/04 03:37:14;;;;;;;;;34.00;30.00;;;;;12.78;53.76;101200.94;5038795;28;47279;-52
2022/05/04 03:39:39;;;;;;;;;37.00;30.75;;;;;12.73;54.62;101199.31;5040428;28;45185;-53
2022/05/04 03:42:05;;;;;;;;;36.50;28.50;;;;;12.70;54.58;101202.00;5039669;28;59531;-53
2022/05/04 03:44:30;;;;;;;;;40.00;29.00;;;;;12.67;54.65;101198.59;5041173;28;45217;-51
2022/05/04 03:46:56;;;;;;;;;23.25;21.25;;;;;12.63;54.41;101194.34;5039387;28;66996;-53
2022/05/04 03:49:22;;;;;;;;;30.25;24.50;;;;;12.65;54.91;101195.16;5040866;28;51708;-53
2022/05/04 03:51:48;;;;;;;;;38.75;31.25;;;;;12.60;55.58;101194.44;5040572;28;45481;-52
2022/05/04 03:54:13;;;;;;;;;31.50;28.00;;;;;12.58;55.03;101202.34;5039867;28;45518;-51
2022/05/04 03:56:39;;;;;;;;;34.50;27.25;;;;;12.55;54.57;101197.19;5039858;27;45426;-53
2022/05/04 03:59:04;;;;;;;;;41.00;28.25;;;;;12.49;55.02;101187.72;5040995;28;45324;-54
2022/05/04 04:01:30;;;;;;;;;38.25;27.00;;;;;12.49;55.19;101197.34;5040449;28;45467;-54
2022/05/04 04:03:55;;;;;;;;;32.50;25.25;;;;;12.48;55.26;101193.88;5040222;28;63216;-53
2022/05/04 04:06:21;;;;;;;;;42.25;28.00;;;;;12.45;55.20;101193.97;5039832;28;55626;-51
2022/05/04 04:08:47;;;;;;;;;40.75;30.50;;;;;12.39;55.49;101196.72;5040692;28;45367;-53
2022/05/04 04:11:12;;;;;;;;;36.75;29.75;;;;;12.37;54.95;101195.06;5039814;28;45547;-52
2022/05/04 04:13:38;;;;;;;;;38.75;28.75;;;;;12.34;55.23;101196.00;5039634;28;67303;-54
2022/05/04 04:16:04;;;;;;;;;27.50;25.75;;;;;12.33;55.25;101189.03;5032518;28;46679;-54
2022/05/04 04:18:29;;;;;;;;;30.25;28.75;;;;;12.32;55.11;101192.56;5048072;28;45317;-53
2022/05/04 04:23:38;;;;;;;;;35.75;28.75;;;;;12.28;55.81;101204.91;5038684;28;45371;-53
2022/05/04 04:26:04;;;;;;;;;38.75;28.00;;;;;12.26;55.47;101214.59;5039017;28;56808;-54
2022/05/04 04:28:30;;;;;;;;;36.50;28.75;;;;;12.26;55.78;101209.34;5040302;28;45832;-52
2022/05/04 04:30:55;;;;;;;;;37.25;27.00;;;;;12.26;55.27;101208.47;5039978;28;45443;-52
2022/05/04 04:33:26;;;;;;;;;44.50;29.25;;;;;12.24;55.89;101211.13;5039986;28;54984;-54
2022/05/04 04:35:51;;;;;;;;;35.00;27.50;;;;;12.25;55.79;101205.00;5039709;28;45314;-54
2022/05/04 04:38:17;;;;;;;;;33.00;26.50;;;;;12.24;55.98;101205.03;5040237;28;46080;-54
2022/05/04 04:40:42;;;;;;;;;30.75;24.50;;;;;12.28;55.43;101211.91;5038407;28;46265;-54
2022/05/04 04:43:08;;;;;;;;;30.25;21.75;;;;;12.29;55.57;101213.66;5039487;28;66446;-53
2022/05/04 04:45:33;;;;;;;;;36.75;28.25;;;;;12.27;55.24;101213.69;5039398;28;46048;-53
2022/05/04 04:47:58;;;;;;;;;33.25;24.00;;;;;12.26;55.65;101208.47;5037947;28;63896;-53
2022/05/04 04:50:24;;;;;;;;;28.25;22.50;;;;;12.26;55.71;101217.19;5039070;28;60081;-52
2022/05/04 04:52:49;;;;;;;;;40.00;31.75;;;;;12.26;55.77;101217.19;5039253;28;59742;-53
2022/05/04 04:55:15;;;;;;;;;31.00;26.50;;;;;12.27;55.57;101225.94;5039716;28;46904;-53
2022/05/04 04:57:40;;;;;;;;;34.25;27.75;;;;;12.26;55.25;101222.44;5039257;28;45306;-54
2022/05/04 05:00:07;;;;;;;;;37.50;28.00;;;;;12.24;55.82;101218.16;5039142;28;64539;-53
2022/05/04 05:02:35;;;;;;;;;38.50;29.50;;;;;12.23;56.04;101219.06;5039184;28;45498;-53
2022/05/04 05:05:03;;;;;;;;;36.75;28.50;;;;;12.25;55.60;101225.13;5039828;28;45375;-53
2022/05/04 05:07:29;;;;;;;;;38.25;29.50;;;;;12.24;55.89;101228.66;5039349;28;45504;-52
2022/05/04 05:09:54;;;;;;;;;34.50;28.50;;;;;12.25;56.15;101227.75;5039739;28;45501;-53
2022/05/04 05:12:21;;;;;;;;;37.25;28.00;;;;;12.26;55.76;101232.09;5038918;28;45299;-53
2022/05/04 05:17:31;;;;;;;;;42.25;29.00;;;;;12.11;55.51;101199.22;5039053;28;45228;-53
2022/05/04 05:19:57;;;;;;;;;35.75;28.00;;;;;12.29;55.67;101230.25;5027464;28;45447;-52
2022/05/04 05:22:22;;;;;;;;;38.00;27.50;;;;;12.28;55.35;101232.91;5038917;28;45363;-51
2022/05/04 05:24:48;;;;;;;;;27.50;25.25;;;;;12.26;55.17;101225.06;5038612;28;69785;-54
2022/05/04 05:27:14;;;;;;;;;35.00;26.25;;;;;12.23;55.38;101232.16;5037944;28;67842;-53
2022/05/04 05:29:39;;;;;;;;;31.75;23.00;;;;;12.21;54.91;101236.59;5039444;28;45355;-52
2022/05/04 05:32:05;;;;;;;;;32.00;25.75;;;;;12.17;55.61;101237.59;5038041;28;68464;-53
2022/05/04 05:34:33;;;;;;;;;29.25;21.25;;;;;12.18;55.36;101234.03;5039347;28;46827;-52
2022/05/04 05:36:59;;;;;;;;;32.75;25.00;;;;;12.18;55.35;101234.03;5034438;28;45333;-54
2022/05/04 05:39:24;;;;;;;;;26.75;22.25;;;;;12.20;55.81;101230.50;5035357;28;45267;-53
2022/05/04 05:41:50;;;;;;;;;27.00;20.25;;;;;12.22;55.20;101241.81;5037745;28;65743;-53
2022/05/04 05:44:15;;;;;;;;;30.50;28.00;;;;;12.23;55.70;101245.28;5038492;28;65970;-53
2022/05/04 05:46:40;;;;;;;;;33.50;26.25;;;;;12.24;55.56;101244.41;5037866;28;63555;-53
2022/05/04 05:49:06;;;;;;;;;32.50;28.25;;;;;12.24;55.02;101242.63;5038675;28;62136;-53
2022/05/04 05:51:31;;;;;;;;;34.25;25.50;;;;;12.24;55.32;101245.25;5038378;28;55504;-53
2022/05/04 05:53:57;;;;;;;;;30.50;25.25;;;;;12.26;55.33;101247.84;5037054;28;70105;-54
2022/05/04 05:56:22;;;;;;;;;39.50;27.25;;;;;12.27;55.31;101250.44;5037720;28;66479;-53
2022/05/04 05:58:47;;;;;;;;;33.75;27.25;;;;;12.29;55.07;101253.03;5038386;28;60823;-52
2022/05/04 06:01:13;;;;;;;;;36.25;27.50;;;;;12.29;55.26;101248.63;5038454;28;52928;-54
2022/05/04 06:03:38;;;;;;;;;40.50;24.75;;;;;12.31;55.13;101249.44;5041906;28;45404;-53
2022/05/04 06:06:03;;;;;;;;;42.00;28.25;;;;;12.33;55.12;101250.25;5041357;28;67430;-51
2022/05/04 06:08:29;;;;;;;;;28.25;24.50;;;;;12.37;55.35;101255.44;5041868;28;63716;-54
2022/05/04 06:10:54;;;;;;;;;38.00;27.00;;;;;12.40;54.95;101255.38;5040844;28;68643;-53
2022/05/04 06:13:20;;;;;;;;;31.25;26.00;;;;;12.41;55.25;101254.44;5041315;28;68106;-54
2022/05/04 06:15:45;;;;;;;;;32.75;26.25;;;;;12.42;54.91;101257.03;5041978;28;45355;-54
2022/05/04 06:18:12;;;;;;;;;34.50;25.25;;;;;12.47;55.12;101260.41;5040475;28;63961;-53
2022/05/04 06:20:37;;;;;;;;;37.50;26.50;;;;;12.51;54.76;101271.69;5041913;28;45236;-53
2022/05/04 06:23:03;;;;;;;;;31.50;26.00;;;;;12.52;54.62;101265.53;5042084;28;46064;-53
2022/05/04 06:25:28;;;;;;;;;35.25;25.50;;;;;12.52;54.99;101270.78;5041023;28;63576;-54
2022/05/04 06:27:53;;;;;;;;;33.25;27.00;;;;;12.53;54.64;101275.13;5040101;28;62483;-54
2022/05/04 06:35:47;;;;;;;;;33.00;26.50;;;;;12.60;54.52;101281.94;5041706;28;45817;-54
2022/05/04 06:38:12;;;;;;;;;27.50;24.75;;;;;12.62;54.29;101282.75;5041555;28;62202;-54
2022/05/04 06:40:38;;;;;;;;;27.00;22.25;;;;;12.63;54.81;101284.47;5041294;28;45561;-54
2022/05/04 06:43:03;;;;;;;;;40.25;27.75;;;;;12.63;54.65;101281.00;5041779;28;46952;-54
2022/05/04 06:45:29;;;;;;;;;30.50;23.25;;;;;12.66;54.13;101276.53;5041442;28;45255;-52
2022/05/04 06:47:54;;;;;;;;;26.75;20.00;;;;;12.64;54.68;101272.22;5041047;28;61410;-54
2022/05/04 06:50:19;;;;;;;;;37.50;29.00;;;;;12.66;54.43;101273.91;5041031;28;68150;-53
2022/05/04 06:52:45;;;;;;;;;34.25;28.75;;;;;12.70;54.44;101269.44;5040224;28;69948;-53
2022/05/04 06:55:10;;;;;;;;;39.25;30.00;;;;;12.75;54.52;101271.91;5041771;28;45306;-54
2022/05/04 06:57:36;;;;;;;;;40.25;28.75;;;;;12.74;54.71;101252.69;5041348;28;45767;-54
2022/05/04 07:00:04;;;;;;;;;35.75;28.25;;;;;12.91;54.65;101258.31;5041907;28;45358;-54
2022/05/04 07:02:30;;;;;;;;;36.75;24.00;;;;;13.07;53.89;101258.75;5023467;28;47108;-53
2022/05/04 07:04:55;;;;;;;;;34.25;25.50;;;;;13.14;53.89;101259.44;5040157;28;45371;-54
2022/05/04 07:07:20;;;;;;;;;31.75;27.25;;;;;13.24;53.79;101265.28;5040526;28;63432;-51
2022/05/04 07:09:46;;;;;;;;;43.00;31.25;;;;;13.36;54.09;101266.72;5041388;28;45521;-53
2022/05/04 07:12:11;;;;;;;;;44.75;31.00;;;;;13.52;54.15;101267.09;5040440;28;46697;-53
2022/05/04 07:14:37;;;;;;;;;39.25;25.00;;;;;13.60;53.81;101267.75;5039528;28;45336;-53
2022/05/04 07:17:02;;;;;;;;;39.25;29.50;;;;;13.67;53.54;101270.13;5040458;28;51634;-51
2022/05/04 07:19:27;;;;;;;;;41.50;28.00;;;;;13.68;53.45;101269.19;5041315;28;45241;-53
2022/05/04 07:21:53;;;;;;;;;37.25;28.50;;;;;13.72;53.49;101274.38;5036288;28;46176;-54
2022/05/04 07:24:18;;;;;;;;;43.25;32.50;;;;;13.73;53.56;101274.31;5037015;28;66849;-54
2022/05/04 07:26:44;;;;;;;;;37.50;32.25;;;;;13.77;53.53;101281.19;5038979;28;54022;-54
2022/05/04 07:29:09;;;;;;;;;34.75;27.00;;;;;13.82;53.39;101281.91;5041360;28;45431;-54
2022/05/04 07:31:35;;;;;;;;;42.75;32.00;;;;;13.87;53.17;101287.03;5040209;28;59076;-54
2022/05/04 07:34:01;;;;;;;;;40.00;30.75;;;;;13.95;52.93;101289.41;5041202;28;45271;-51
2022/05/04 07:36:27;;;;;;;;;44.50;31.50;;;;;13.98;52.94;101289.34;5041158;28;45508;-53
2022/05/04 07:38:52;;;;;;;;;37.50;31.25;;;;;13.98;52.74;101294.59;5041217;28;45511;-54
2022/05/04 07:44:01;;;;;;;;;47.25;32.00;;;;;13.99;53.01;101307.72;5039327;28;45372;-54
2022/05/04 07:46:29;;;;;;;;;43.75;30.75;;;;;13.95;53.14;101313.09;5040122;28;55770;-53
2022/05/04 07:48:55;;;;;;;;;40.25;32.00;;;;;13.89;53.51;101298.38;5039603;28;45440;-54
2022/05/04 07:51:21;;;;;;;;;48.75;33.50;;;;;13.93;53.22;101300.00;5040345;28;46073;-52
2022/05/04 07:53:46;;;;;;;;;44.25;35.50;;;;;13.97;53.35;101304.28;5039614;28;45417;-54
2022/05/04 07:56:12;;;;;;;;;40.75;31.75;;;;;14.00;53.05;101304.16;5039789;28;56194;-53
2022/05/04 07:58:37;;;;;;;;;44.75;33.50;;;;;14.02;53.22;101301.47;5039965;28;68614;-54
2022/05/04 08:06:30;;;;;;;;;50.50;34.25;;;;;14.23;52.87;101299.91;5040308;28;45375;-54
2022/05/04 08:08:56;;;;;;;;;34.50;29.00;;;;;14.29;52.88;101296.22;5040343;28;59328;-54
2022/05/04 08:11:21;;;;;;;;;43.25;31.00;;;;;14.35;52.75;101296.88;5039114;28;58416;-54
2022/05/04 08:13:46;;;;;;;;;38.00;31.25;;;;;14.40;52.93;101299.34;5039889;28;60654;-53
2022/05/04 08:16:13;;;;;;;;;43.75;31.50;;;;;14.46;52.56;101300.91;5040233;28;45772;-54
2022/05/04 08:18:40;;;;;;;;;32.75;24.00;;;;;14.55;52.41;101306.72;5040587;28;45374;-55
2022/05/04 08:21:06;;;;;;;;;35.25;28.25;;;;;14.59;52.36;101313.66;5039830;28;46048;-54
2022/05/04 08:23:32;;;;;;;;;37.25;31.75;;;;;14.63;52.31;101309.13;5039360;28;45840;-54
2022/05/04 08:25:57;;;;;;;;;42.75;33.00;;;;;14.67;52.31;101305.47;5038395;28;62909;-54
2022/05/04 08:28:23;;;;;;;;;46.75;32.75;;;;;14.77;52.06;101311.28;5039592;28;68136;-54
2022/05/04 08:30:48;;;;;;;;;38.50;34.00;;;;;14.84;52.24;101311.91;5039810;28;47066;-54
2022/05/04 08:33:14;;;;;;;;;46.00;34.00;;;;;14.93;52.07;101311.59;5039642;28;62856;-52
2022/05/04 08:35:39;;;;;;;;;47.25;35.50;;;;;14.96;51.62;101312.34;5039320;28;59485;-54
2022/05/04 08:38:05;;;;;;;;;51.00;33.00;;;;;15.00;51.56;101300.78;5037351;28;64474;-54
2022/05/04 08:40:31;;;;;;;;;45.50;33.50;;;;;15.10;51.64;101308.34;5038270;28;46805;-50
2022/05/04 08:42:57;;;;;;;;;43.25;33.50;;;;;15.16;52.01;101306.34;5039839;28;46501;-53
2022/05/04 08:45:22;;;;;;;;;47.00;34.50;;;;;15.29;51.34;101300.63;5040308;28;45305;-54
2022/05/04 08:47:48;;;;;;;;;40.50;31.50;;;;;15.40;51.57;101306.34;5037379;28;65863;-53
2022/05/04 08:50:15;;;;;;;;;38.75;33.00;;;;;15.49;51.30;101308.66;5021426;28;52866;-53
2022/05/04 08:52:42;;;;;;;;;46.00;32.75;;;;;15.55;51.09;101304.91;5039308;28;45801;-54
2022/05/04 08:55:08;;;;;;;;;46.50;32.00;;;;;15.64;51.17;101306.31;5039990;28;45382;-54
2022/05/04 08:57:33;;;;;;;;;41.00;34.50;;;;;15.77;50.64;101304.09;5033272;28;45424;-54
2022/05/04 08:59:58;;;;;;;;;46.25;32.25;;;;;15.85;50.74;101305.50;5039035;28;68016;-53
2022/05/04 09:02:24;;;;;;;;;41.00;33.00;;;;;15.96;50.05;101309.50;5038651;28;63454;-53
2022/05/04 09:04:49;;;;;;;;;46.75;33.00;;;;;16.05;50.35;101323.19;5039171;28;61787;-54
2022/05/04 09:07:24;;;;;;;;;44.50;33.25;;;;;16.21;50.05;101315.50;5039464;28;45333;-53
2022/05/04 09:09:53;;;;;;;;;46.75;33.00;;;;;16.52;49.68;101315.06;5038376;28;46202;-55
2022/05/04 09:12:18;;;;;;;;;45.00;33.25;;;;;17.01;48.82;101316.53;5038771;28;45234;-54
2022/05/04 09:14:44;;;;;;;;;39.50;31.75;;;;;17.56;48.38;101324.56;5039845;28;45272;-53
2022/05/04 09:17:10;;;;;;;;;37.75;30.25;;;;;17.93;47.50;101314.06;5039239;28;45241;-54
2022/05/04 09:19:36;;;;;;;;;39.50;31.00;;;;;18.18;46.78;101319.88;5039493;28;46130;-53
2022/05/04 09:22:01;;;;;;;;;43.25;32.00;;;;;18.71;46.41;101328.69;5038325;28;68615;-54
2022/05/04 09:24:27;;;;;;;;;44.25;32.00;;;;;20.21;45.07;101324.09;5039384;28;48148;-54
2022/05/04 09:26:54;;;;;;;;;41.00;31.50;;;;;21.89;42.18;101318.31;5038741;28;45312;-55
2022/05/04 09:29:20;;;;;;;;;45.25;34.00;;;;;23.30;40.32;101313.16;5038308;28;45673;-54
2022/05/04 09:31:46;;;;;;;;;38.50;29.50;;;;;24.35;37.69;101316.22;5039060;28;45335;-52
2022/05/04 09:34:12;;;;;;;;;36.50;33.00;;;;;25.55;37.70;101317.56;5051717;28;45395;-54
2022/05/04 09:44:53;;;;;;;;;41.00;30.50;;;;;25.98;36.09;101306.03;5029260;28;63716;-54
2022/05/04 09:45:12;;;;;;;;;33.25;27.25;;;;;23.99;36.58;101296.63;5043248;28;45281;-54
2022/05/04 09:47:42;;;;;;;;;31.00;25.25;;;;;24.51;37.40;101306.03;5042070;28;45414;-53
2022/05/04 09:50:09;;;;;;;;;33.25;28.50;;;;;24.16;35.35;101290.00;5042805;28;45323;-53
2022/05/04 09:52:48;;;;;;;;;37.25;30.25;;;;;23.62;35.87;101291.28;5042182;28;45875;-53
2022/05/04 09:55:14;;;;;;;;;37.00;30.00;;;;;23.52;38.25;101293.78;5042755;28;45382;-54
2022/05/04 09:57:42;;;;;;;;;32.00;25.50;;;;;23.88;36.74;101292.06;5042223;28;45403;-53
2022/05/04 10:00:08;;;;;;;;;36.00;27.25;;;;;24.24;35.83;101284.91;5042724;28;45431;-54
2022/05/04 10:02:33;;;;;;;;;31.50;24.75;;;;;25.39;36.33;101294.72;5040882;28;45431;-54
2022/05/04 10:05:00;;;;;;;;;31.00;26.00;;;;;26.75;33.69;101291.47;5024193;28;62235;-54
2022/05/04 10:07:26;;;;;;;;;28.00;25.50;;;;;28.29;31.14;101296.50;5042132;28;45450;-54
2022/05/04 10:09:52;;;;;;;;;34.25;26.00;;;;;29.63;30.78;101291.78;5042492;28;46324;-54
2022/05/04 10:12:19;;;;;;;;;30.50;26.25;;;;;30.87;28.42;101290.09;5041645;28;45178;-54
2022/05/04 10:14:44;;;;;;;;;25.50;23.50;;;;;31.82;27.32;101282.69;5025133;28;45851;-54
2022/05/04 10:17:13;;;;;;;;;31.00;25.25;;;;;32.54;27.05;101292.81;5016161;28;67796;-54
2022/05/04 10:19:51;;;;;;;;;24.50;23.00;;;;;33.09;26.37;101285.72;5041015;28;46358;-55
2022/05/04 10:22:21;;;;;;;;;26.50;22.50;;;;;33.69;25.09;101292.41;5040612;28;45707;-55
2022/05/04 10:24:46;;;;;;;;;28.50;23.00;;;;;33.75;24.38;101286.28;5024870;28;45339;-54
2022/05/04 10:27:17;;;;;;;;;25.75;22.75;;;;;33.78;25.77;101282.34;5039532;28;68876;-54
2022/05/04 10:32:37;;;;;;;;;29.50;23.25;;;;;34.10;23.88;101288.53;5041572;28;45477;-53
2022/05/04 10:35:40;;;;;;;;;32.25;26.75;;;;;34.67;24.05;101287.13;5033618;28;45292;-55
2022/05/04 10:38:13;;;;;;;;;35.50;27.00;;;;;35.06;24.18;101288.75;5039772;28;45378;-54
2022/05/04 10:40:43;;;;;;;;;26.75;23.00;;;;;34.58;22.14;101281.81;5041235;28;45973;-53
2022/05/04 10:43:18;;;;;;;;;29.50;22.00;;;;;34.50;24.35;101286.50;5039167;28;45766;-54
2022/05/04 10:45:45;;;;;;;;;25.00;21.50;;;;;34.53;22.89;101294.25;5041649;28;45402;-54
2022/05/04 10:48:20;;;;;;;;;25.75;23.25;;;;;34.91;23.12;101297.75;5041581;28;45563;-54
2022/05/04 10:50:57;;;;;;;;;22.50;21.25;;;;;35.48;22.74;101293.47;5041405;28;46331;-54
2022/05/04 10:53:26;;;;;;;;;26.50;23.25;;;;;36.06;21.98;101295.31;5037685;28;45476;-54
2022/05/04 10:56:04;;;;;;;;;36.25;26.00;;;;;36.58;21.51;101298.66;5041535;28;45312;-54
2022/05/04 10:58:41;;;;;;;;;26.00;21.50;;;;;36.28;21.58;101296.16;5039850;28;45234;-54
2022/05/04 11:01:25;;;;;;;;;26.75;22.75;;;;;34.73;21.53;101297.31;5041394;28;46170;-53
2022/05/04 11:04:09;;;;;;;;;20.50;20.00;;;;;33.01;22.78;101291.22;5041890;28;45264;-51
2022/05/04 11:06:34;;;;;;;;;24.25;21.00;;;;;31.57;23.45;101296.19;5041245;28;45350;-54
2022/05/04 11:09:05;;;;;;;;;27.33;19.33;;;;;30.33;25.09;101290.22;5041841;28;45522;-50
2022/05/04 11:11:32;;;;;;;;;23.00;18.50;;;;;29.22;25.82;101285.09;5039044;28;45444;-51
2022/05/04 11:13:57;;;;;;;;;23.50;21.00;;;;;28.64;26.11;101288.84;5041656;28;45235;-53
2022/05/04 11:16:23;;;;;;;;;21.50;17.50;;;;;29.04;25.49;101275.09;5041011;28;45727;-52
2022/05/04 11:18:49;;;;;;;;;21.75;18.25;;;;;29.65;26.24;101278.16;5041656;28;45299;-53
2022/05/04 11:21:15;;;;;;;;;18.00;13.00;;;;;29.65;25.59;101267.34;5040812;28;45917;-52
2022/05/04 11:23:48;;;;;;;;;18.25;15.75;;;;;29.79;25.14;101268.72;5040218;28;45252;-52
2022/05/04 11:26:21;;;;;;;;;18.25;15.00;;;;;29.91;25.52;101270.16;5023332;28;45325;-52
2022/05/04 11:28:47;;;;;;;;;9.50;7.75;;;;;29.82;25.12;101269.25;5041456;28;45558;-52
2022/05/04 11:31:12;;;;;;;;;10.00;7.00;;;;;29.39;24.74;101265.38;5039861;28;72244;-52
2022/05/04 11:33:40;;;;;;;;;9.50;7.25;;;;;28.95;24.56;101271.44;5041178;28;45229;-50
2022/05/04 11:36:05;;;;;;;;;8.75;8.25;;;;;28.37;25.37;101272.44;5040832;28;45391;-52